sensor_id;sensor_type;location;lat;lon;timestamp;P1;durP1;ratioP1;P2;durP2;ratioP2
80557;SDS011;69901;43.524;-5.636;2023-11-22T00:00:02;13.32;;;4.63;;
80557;SDS011;69901;43.524;-5.636;2023-11-22T00:02:28;12.43;;;3.57;;
80557;SDS011;69901;43.524;-5.636;2023-11-22T00:04:54;14.63;;;3.60;;
80557;SDS011;69901;43.524;-5.636;2023-11-22T00:07:20;17.83;;;3.53;;
80557;SDS011;69901;43.524;-5.636;2023-11-22T00:09:46;11.90;;;3.87;;
80557;SDS011;69901;43.524;-5.636;2023-11-22T00:12:15;8.38;;;3.10;;
80557;SDS011;69901;43.524;-5.636;2023-11-22T00:14:42;14.15;;;5.30;;
80557;SDS011;69901;43.524;-5.636;2023-11-22T00:17:09;16.70;;;5.10;;
80557;SDS011;69901;43.524;-5.636;2023-11-22T00:19:35;15.17;;;4.83;;
80557;SDS011;69901;43.524;-5.636;2023-11-22T00:22:01;17.23;;;4.40;;
80557;SDS011;69901;43.524;-5.636;2023-11-22T00:24:35;18.55;;;4.25;;
80557;SDS011;69901;43.524;-5.636;2023-11-22T00:27:00;17.13;;;4.50;;
80557;SDS011;69901;43.524;-5.636;2023-11-22T00:29:26;14.63;;;4.80;;
80557;SDS011;69901;43.524;-5.636;2023-11-22T00:31:51;15.68;;;4.00;;
80557;SDS011;69901;43.524;-5.636;2023-11-22T00:34:17;12.47;;;5.90;;
80557;SDS011;69901;43.524;-5.636;2023-11-22T00:36:42;12.43;;;4.23;;
80557;SDS011;69901;43.524;-5.636;2023-11-22T00:39:08;12.82;;;4.43;;
80557;SDS011;69901;43.524;-5.636;2023-11-22T00:41:38;14.93;;;4.10;;
80557;SDS011;69901;43.524;-5.636;2023-11-22T00:44:04;11.13;;;4.18;;
80557;SDS011;69901;43.524;-5.636;2023-11-22T00:46:31;23.10;;;5.68;;
80557;SDS011;69901;43.524;-5.636;2023-11-22T00:48:57;14.50;;;4.70;;
80557;SDS011;69901;43.524;-5.636;2023-11-22T00:51:22;15.13;;;4.40;;
80557;SDS011;69901;43.524;-5.636;2023-11-22T00:53:48;11.60;;;4.53;;
80557;SDS011;69901;43.524;-5.636;2023-11-22T00:56:14;14.48;;;5.50;;
80557;SDS011;69901;43.524;-5.636;2023-11-22T00:58:40;12.70;;;5.40;;
80557;SDS011;69901;43.524;-5.636;2023-11-22T01:01:06;13.50;;;5.43;;
80557;SDS011;69901;43.524;-5.636;2023-11-22T01:03:31;13.95;;;5.18;;
80557;SDS011;69901;43.524;-5.636;2023-11-22T01:05:57;13.60;;;5.40;;
80557;SDS011;69901;43.524;-5.636;2023-11-22T01:08:23;13.30;;;5.37;;
80557;SDS011;69901;43.524;-5.636;2023-11-22T01:10:48;10.70;;;5.63;;
80557;SDS011;69901;43.524;-5.636;2023-11-22T01:13:14;17.77;;;5.97;;
80557;SDS011;69901;43.524;-5.636;2023-11-22T01:15:40;16.08;;;6.10;;
80557;SDS011;69901;43.524;-5.636;2023-11-22T01:18:06;13.57;;;5.55;;
80557;SDS011;69901;43.524;-5.636;2023-11-22T01:20:32;17.07;;;5.97;;
80557;SDS011;69901;43.524;-5.636;2023-11-22T01:22:57;13.97;;;6.30;;
80557;SDS011;69901;43.524;-5.636;2023-11-22T01:25:23;16.08;;;5.78;;
80557;SDS011;69901;43.524;-5.636;2023-11-22T01:27:48;13.70;;;5.63;;
80557;SDS011;69901;43.524;-5.636;2023-11-22T01:30:14;11.50;;;5.50;;
80557;SDS011;69901;43.524;-5.636;2023-11-22T01:32:40;13.33;;;6.17;;
80557;SDS011;69901;43.524;-5.636;2023-11-22T01:35:05;13.18;;;5.82;;
80557;SDS011;69901;43.524;-5.636;2023-11-22T01:37:31;15.55;;;5.80;;
80557;SDS011;69901;43.524;-5.636;2023-11-22T01:39:57;12.67;;;5.80;;
80557;SDS011;69901;43.524;-5.636;2023-11-22T01:42:23;14.27;;;6.13;;
80557;SDS011;69901;43.524;-5.636;2023-11-22T01:44:50;16.20;;;5.93;;
80557;SDS011;69901;43.524;-5.636;2023-11-22T01:47:17;11.15;;;5.38;;
80557;SDS011;69901;43.524;-5.636;2023-11-22T01:49:44;17.10;;;5.90;;
80557;SDS011;69901;43.524;-5.636;2023-11-22T01:52:10;13.13;;;5.55;;
80557;SDS011;69901;43.524;-5.636;2023-11-22T01:54:36;12.37;;;6.23;;
80557;SDS011;69901;43.524;-5.636;2023-11-22T01:57:02;16.92;;;5.53;;
80557;SDS011;69901;43.524;-5.636;2023-11-22T01:59:28;19.35;;;6.50;;
80557;SDS011;69901;43.524;-5.636;2023-11-22T02:01:56;16.48;;;5.97;;
80557;SDS011;69901;43.524;-5.636;2023-11-22T02:04:22;15.18;;;5.88;;
80557;SDS011;69901;43.524;-5.636;2023-11-22T02:06:48;14.73;;;5.57;;
80557;SDS011;69901;43.524;-5.636;2023-11-22T02:09:14;12.53;;;6.00;;
80557;SDS011;69901;43.524;-5.636;2023-11-22T02:11:40;13.10;;;5.75;;
80557;SDS011;69901;43.524;-5.636;2023-11-22T02:14:07;12.77;;;6.45;;
80557;SDS011;69901;43.524;-5.636;2023-11-22T02:16:34;15.88;;;6.38;;
80557;SDS011;69901;43.524;-5.636;2023-11-22T02:19:00;17.23;;;6.47;;
80557;SDS011;69901;43.524;-5.636;2023-11-22T02:21:26;13.33;;;6.40;;
80557;SDS011;69901;43.524;-5.636;2023-11-22T02:23:51;13.52;;;6.10;;
80557;SDS011;69901;43.524;-5.636;2023-11-22T02:26:17;11.80;;;6.07;;
80557;SDS011;69901;43.524;-5.636;2023-11-22T02:28:43;13.37;;;6.27;;
80557;SDS011;69901;43.524;-5.636;2023-11-22T02:31:09;17.73;;;6.22;;
80557;SDS011;69901;43.524;-5.636;2023-11-22T02:33:34;14.13;;;6.75;;
80557;SDS011;69901;43.524;-5.636;2023-11-22T02:36:00;17.67;;;6.50;;
80557;SDS011;69901;43.524;-5.636;2023-11-22T02:38:27;13.63;;;5.80;;
80557;SDS011;69901;43.524;-5.636;2023-11-22T02:40:53;14.07;;;6.43;;
80557;SDS011;69901;43.524;-5.636;2023-11-22T02:43:19;11.18;;;6.05;;
80557;SDS011;69901;43.524;-5.636;2023-11-22T02:45:45;15.13;;;6.30;;
80557;SDS011;69901;43.524;-5.636;2023-11-22T02:48:11;13.50;;;6.40;;
80557;SDS011;69901;43.524;-5.636;2023-11-22T02:50:38;16.58;;;7.38;;
80557;SDS011;69901;43.524;-5.636;2023-11-22T02:53:04;14.33;;;7.00;;
80557;SDS011;69901;43.524;-5.636;2023-11-22T02:55:30;11.57;;;6.22;;
80557;SDS011;69901;43.524;-5.636;2023-11-22T02:57:56;11.77;;;6.90;;
80557;SDS011;69901;43.524;-5.636;2023-11-22T03:00:21;13.43;;;5.65;;
80557;SDS011;69901;43.524;-5.636;2023-11-22T03:02:47;13.27;;;6.20;;
80557;SDS011;69901;43.524;-5.636;2023-11-22T03:05:18;12.80;;;6.03;;
80557;SDS011;69901;43.524;-5.636;2023-11-22T03:07:47;19.80;;;7.07;;
80557;SDS011;69901;43.524;-5.636;2023-11-22T03:10:16;13.45;;;6.07;;
80557;SDS011;69901;43.524;-5.636;2023-11-22T03:12:43;13.85;;;5.68;;
80557;SDS011;69901;43.524;-5.636;2023-11-22T03:15:09;10.50;;;6.53;;
80557;SDS011;69901;43.524;-5.636;2023-11-22T03:17:34;14.60;;;6.70;;
80557;SDS011;69901;43.524;-5.636;2023-11-22T03:20:00;17.70;;;6.33;;
80557;SDS011;69901;43.524;-5.636;2023-11-22T03:22:26;13.68;;;6.07;;
80557;SDS011;69901;43.524;-5.636;2023-11-22T03:24:55;13.37;;;6.80;;
80557;SDS011;69901;43.524;-5.636;2023-11-22T03:27:21;13.70;;;6.55;;
80557;SDS011;69901;43.524;-5.636;2023-11-22T03:29:48;12.73;;;6.85;;
80557;SDS011;69901;43.524;-5.636;2023-11-22T03:32:13;15.70;;;6.60;;
80557;SDS011;69901;43.524;-5.636;2023-11-22T03:34:39;16.40;;;6.57;;
80557;SDS011;69901;43.524;-5.636;2023-11-22T03:37:04;12.70;;;6.77;;
80557;SDS011;69901;43.524;-5.636;2023-11-22T03:39:30;14.43;;;5.90;;
80557;SDS011;69901;43.524;-5.636;2023-11-22T03:41:55;14.50;;;6.80;;
80557;SDS011;69901;43.524;-5.636;2023-11-22T03:44:22;13.73;;;6.43;;
80557;SDS011;69901;43.524;-5.636;2023-11-22T03:46:48;15.05;;;6.43;;
80557;SDS011;69901;43.524;-5.636;2023-11-22T03:49:13;17.23;;;6.87;;
80557;SDS011;69901;43.524;-5.636;2023-11-22T03:51:40;13.10;;;6.57;;
80557;SDS011;69901;43.524;-5.636;2023-11-22T03:54:07;16.70;;;6.47;;
80557;SDS011;69901;43.524;-5.636;2023-11-22T03:56:35;14.88;;;6.50;;
80557;SDS011;69901;43.524;-5.636;2023-11-22T03:59:00;14.20;;;6.30;;
80557;SDS011;69901;43.524;-5.636;2023-11-22T04:01:26;15.43;;;7.50;;
80557;SDS011;69901;43.524;-5.636;2023-11-22T04:03:51;17.65;;;6.78;;
80557;SDS011;69901;43.524;-5.636;2023-11-22T04:06:18;12.73;;;5.50;;
80557;SDS011;69901;43.524;-5.636;2023-11-22T04:08:48;16.10;;;6.13;;
80557;SDS011;69901;43.524;-5.636;2023-11-22T04:11:14;14.20;;;6.82;;
80557;SDS011;69901;43.524;-5.636;2023-11-22T04:13:40;12.32;;;6.65;;
80557;SDS011;69901;43.524;-5.636;2023-11-22T04:16:08;14.27;;;6.47;;
80557;SDS011;69901;43.524;-5.636;2023-11-22T04:18:37;18.50;;;6.40;;
80557;SDS011;69901;43.524;-5.636;2023-11-22T04:21:03;17.23;;;6.93;;
80557;SDS011;69901;43.524;-5.636;2023-11-22T04:23:30;10.20;;;6.22;;
80557;SDS011;69901;43.524;-5.636;2023-11-22T04:25:57;13.45;;;6.30;;
80557;SDS011;69901;43.524;-5.636;2023-11-22T04:28:23;10.95;;;5.93;;
80557;SDS011;69901;43.524;-5.636;2023-11-22T04:30:49;14.63;;;6.90;;
80557;SDS011;69901;43.524;-5.636;2023-11-22T04:33:14;10.70;;;6.72;;
80557;SDS011;69901;43.524;-5.636;2023-11-22T04:35:40;16.20;;;7.20;;
80557;SDS011;69901;43.524;-5.636;2023-11-22T04:38:06;15.88;;;6.85;;
80557;SDS011;69901;43.524;-5.636;2023-11-22T04:40:32;12.77;;;6.63;;
80557;SDS011;69901;43.524;-5.636;2023-11-22T04:42:58;17.90;;;7.10;;
80557;SDS011;69901;43.524;-5.636;2023-11-22T04:45:24;12.47;;;6.57;;
80557;SDS011;69901;43.524;-5.636;2023-11-22T04:47:50;17.60;;;5.67;;
80557;SDS011;69901;43.524;-5.636;2023-11-22T04:50:15;13.13;;;6.47;;
80557;SDS011;69901;43.524;-5.636;2023-11-22T04:52:41;15.00;;;6.50;;
80557;SDS011;69901;43.524;-5.636;2023-11-22T04:55:06;18.45;;;7.35;;
80557;SDS011;69901;43.524;-5.636;2023-11-22T04:57:33;14.63;;;6.80;;
80557;SDS011;69901;43.524;-5.636;2023-11-22T04:59:58;11.23;;;6.43;;
80557;SDS011;69901;43.524;-5.636;2023-11-22T05:02:25;11.98;;;6.63;;
80557;SDS011;69901;43.524;-5.636;2023-11-22T05:04:53;14.85;;;6.35;;
80557;SDS011;69901;43.524;-5.636;2023-11-22T05:07:18;12.20;;;6.53;;
80557;SDS011;69901;43.524;-5.636;2023-11-22T05:09:47;13.55;;;7.57;;
80557;SDS011;69901;43.524;-5.636;2023-11-22T05:12:12;12.33;;;6.37;;
80557;SDS011;69901;43.524;-5.636;2023-11-22T05:14:39;15.00;;;7.20;;
80557;SDS011;69901;43.524;-5.636;2023-11-22T05:17:05;12.82;;;6.90;;
80557;SDS011;69901;43.524;-5.636;2023-11-22T05:19:30;12.20;;;6.13;;
80557;SDS011;69901;43.524;-5.636;2023-11-22T05:21:56;15.68;;;6.25;;
80557;SDS011;69901;43.524;-5.636;2023-11-22T05:24:23;9.88;;;7.15;;
80557;SDS011;69901;43.524;-5.636;2023-11-22T05:26:48;14.73;;;6.50;;
80557;SDS011;69901;43.524;-5.636;2023-11-22T05:29:14;11.40;;;6.50;;
80557;SDS011;69901;43.524;-5.636;2023-11-22T05:31:39;12.82;;;6.50;;
80557;SDS011;69901;43.524;-5.636;2023-11-22T05:34:05;9.97;;;6.00;;
80557;SDS011;69901;43.524;-5.636;2023-11-22T05:36:31;11.00;;;6.60;;
80557;SDS011;69901;43.524;-5.636;2023-11-22T05:38:56;12.67;;;7.33;;
80557;SDS011;69901;43.524;-5.636;2023-11-22T05:41:25;9.88;;;7.80;;
80557;SDS011;69901;43.524;-5.636;2023-11-22T05:43:51;11.00;;;6.60;;
80557;SDS011;69901;43.524;-5.636;2023-11-22T05:46:18;12.82;;;6.45;;
80557;SDS011;69901;43.524;-5.636;2023-11-22T05:48:47;11.23;;;6.70;;
80557;SDS011;69901;43.524;-5.636;2023-11-22T05:51:19;10.10;;;6.18;;
80557;SDS011;69901;43.524;-5.636;2023-11-22T05:53:44;10.00;;;6.40;;
80557;SDS011;69901;43.524;-5.636;2023-11-22T05:56:10;9.73;;;6.63;;
80557;SDS011;69901;43.524;-5.636;2023-11-22T05:58:36;13.20;;;7.13;;
80557;SDS011;69901;43.524;-5.636;2023-11-22T06:01:06;8.30;;;6.83;;
80557;SDS011;69901;43.524;-5.636;2023-11-22T06:03:37;14.02;;;6.95;;
80557;SDS011;69901;43.524;-5.636;2023-11-22T06:06:04;12.20;;;6.93;;
80557;SDS011;69901;43.524;-5.636;2023-11-22T06:08:29;12.93;;;6.25;;
80557;SDS011;69901;43.524;-5.636;2023-11-22T06:10:56;10.70;;;6.93;;
80557;SDS011;69901;43.524;-5.636;2023-11-22T06:13:23;9.97;;;6.50;;
80557;SDS011;69901;43.524;-5.636;2023-11-22T06:15:49;15.73;;;7.22;;
80557;SDS011;69901;43.524;-5.636;2023-11-22T06:18:15;10.70;;;7.50;;
80557;SDS011;69901;43.524;-5.636;2023-11-22T06:20:41;11.10;;;7.03;;
80557;SDS011;69901;43.524;-5.636;2023-11-22T06:23:07;11.85;;;6.88;;
80557;SDS011;69901;43.524;-5.636;2023-11-22T06:25:33;10.13;;;6.65;;
80557;SDS011;69901;43.524;-5.636;2023-11-22T06:28:01;10.90;;;6.78;;
80557;SDS011;69901;43.524;-5.636;2023-11-22T06:30:27;14.63;;;7.53;;
80557;SDS011;69901;43.524;-5.636;2023-11-22T06:32:52;12.03;;;7.00;;
80557;SDS011;69901;43.524;-5.636;2023-11-22T06:35:18;9.60;;;6.88;;
80557;SDS011;69901;43.524;-5.636;2023-11-22T06:37:44;14.07;;;7.37;;
80557;SDS011;69901;43.524;-5.636;2023-11-22T06:40:10;8.90;;;6.82;;
80557;SDS011;69901;43.524;-5.636;2023-11-22T06:42:40;9.40;;;6.07;;
80557;SDS011;69901;43.524;-5.636;2023-11-22T06:45:06;13.48;;;6.60;;
80557;SDS011;69901;43.524;-5.636;2023-11-22T06:47:44;11.15;;;6.85;;
80557;SDS011;69901;43.524;-5.636;2023-11-22T06:50:10;12.45;;;7.15;;
80557;SDS011;69901;43.524;-5.636;2023-11-22T06:52:36;11.02;;;7.13;;
80557;SDS011;69901;43.524;-5.636;2023-11-22T06:55:03;11.83;;;6.90;;
80557;SDS011;69901;43.524;-5.636;2023-11-22T06:57:35;11.32;;;6.40;;
80557;SDS011;69901;43.524;-5.636;2023-11-22T07:00:02;10.27;;;6.38;;
80557;SDS011;69901;43.524;-5.636;2023-11-22T07:02:33;12.18;;;6.75;;
80557;SDS011;69901;43.524;-5.636;2023-11-22T07:05:00;10.45;;;6.65;;
80557;SDS011;69901;43.524;-5.636;2023-11-22T07:07:26;9.67;;;6.93;;
80557;SDS011;69901;43.524;-5.636;2023-11-22T07:09:51;10.05;;;6.43;;
80557;SDS011;69901;43.524;-5.636;2023-11-22T07:12:17;11.03;;;7.40;;
80557;SDS011;69901;43.524;-5.636;2023-11-22T07:14:44;10.65;;;6.95;;
80557;SDS011;69901;43.524;-5.636;2023-11-22T07:17:09;13.37;;;6.43;;
80557;SDS011;69901;43.524;-5.636;2023-11-22T07:19:35;10.45;;;7.05;;
80557;SDS011;69901;43.524;-5.636;2023-11-22T07:22:06;10.10;;;7.40;;
80557;SDS011;69901;43.524;-5.636;2023-11-22T07:24:41;12.98;;;7.50;;
80557;SDS011;69901;43.524;-5.636;2023-11-22T07:27:10;9.77;;;7.22;;
80557;SDS011;69901;43.524;-5.636;2023-11-22T07:29:37;11.07;;;6.90;;
80557;SDS011;69901;43.524;-5.636;2023-11-22T07:32:06;11.50;;;7.03;;
80557;SDS011;69901;43.524;-5.636;2023-11-22T07:34:33;12.18;;;7.43;;
80557;SDS011;69901;43.524;-5.636;2023-11-22T07:36:59;11.95;;;7.15;;
80557;SDS011;69901;43.524;-5.636;2023-11-22T07:39:25;8.17;;;6.37;;
80557;SDS011;69901;43.524;-5.636;2023-11-22T07:41:52;8.90;;;7.00;;
80557;SDS011;69901;43.524;-5.636;2023-11-22T07:44:20;9.07;;;6.30;;
80557;SDS011;69901;43.524;-5.636;2023-11-22T07:46:52;10.10;;;5.85;;
80557;SDS011;69901;43.524;-5.636;2023-11-22T07:49:19;10.43;;;7.20;;
80557;SDS011;69901;43.524;-5.636;2023-11-22T07:51:45;9.70;;;6.90;;
80557;SDS011;69901;43.524;-5.636;2023-11-22T07:54:10;8.27;;;7.00;;
80557;SDS011;69901;43.524;-5.636;2023-11-22T07:56:40;9.48;;;3.47;;
80557;SDS011;69901;43.524;-5.636;2023-11-22T07:59:08;7.40;;;6.00;;
80557;SDS011;69901;43.524;-5.636;2023-11-22T08:01:36;8.93;;;5.60;;
80557;SDS011;69901;43.524;-5.636;2023-11-22T08:04:01;8.57;;;5.82;;
80557;SDS011;69901;43.524;-5.636;2023-11-22T08:06:27;11.13;;;6.40;;
80557;SDS011;69901;43.524;-5.636;2023-11-22T08:08:53;10.57;;;6.10;;
80557;SDS011;69901;43.524;-5.636;2023-11-22T08:11:18;11.43;;;5.93;;
80557;SDS011;69901;43.524;-5.636;2023-11-22T08:13:44;13.10;;;6.50;;
80557;SDS011;69901;43.524;-5.636;2023-11-22T08:16:12;8.67;;;5.43;;
80557;SDS011;69901;43.524;-5.636;2023-11-22T08:18:38;9.20;;;6.07;;
80557;SDS011;69901;43.524;-5.636;2023-11-22T08:21:05;11.80;;;5.80;;
80557;SDS011;69901;43.524;-5.636;2023-11-22T08:23:31;9.05;;;6.30;;
80557;SDS011;69901;43.524;-5.636;2023-11-22T08:26:00;10.20;;;6.23;;
80557;SDS011;69901;43.524;-5.636;2023-11-22T08:28:26;8.85;;;5.80;;
80557;SDS011;69901;43.524;-5.636;2023-11-22T08:30:52;12.00;;;6.57;;
80557;SDS011;69901;43.524;-5.636;2023-11-22T08:33:18;8.32;;;6.10;;
80557;SDS011;69901;43.524;-5.636;2023-11-22T08:35:44;9.65;;;6.28;;
80557;SDS011;69901;43.524;-5.636;2023-11-22T08:38:15;7.73;;;5.47;;
80557;SDS011;69901;43.524;-5.636;2023-11-22T08:40:41;6.38;;;4.90;;
80557;SDS011;69901;43.524;-5.636;2023-11-22T08:43:07;6.43;;;5.47;;
80557;SDS011;69901;43.524;-5.636;2023-11-22T08:45:32;8.70;;;4.97;;
80557;SDS011;69901;43.524;-5.636;2023-11-22T08:47:59;8.75;;;5.55;;
80557;SDS011;69901;43.524;-5.636;2023-11-22T08:50:25;6.57;;;5.40;;
80557;SDS011;69901;43.524;-5.636;2023-11-22T08:52:51;6.83;;;5.50;;
80557;SDS011;69901;43.524;-5.636;2023-11-22T08:55:19;9.65;;;5.55;;
80557;SDS011;69901;43.524;-5.636;2023-11-22T08:57:49;10.48;;;6.10;;
80557;SDS011;69901;43.524;-5.636;2023-11-22T09:00:17;8.07;;;5.72;;
80557;SDS011;69901;43.524;-5.636;2023-11-22T09:02:48;8.48;;;5.90;;
80557;SDS011;69901;43.524;-5.636;2023-11-22T09:05:14;7.50;;;5.43;;
80557;SDS011;69901;43.524;-5.636;2023-11-22T09:07:50;6.40;;;5.47;;
80557;SDS011;69901;43.524;-5.636;2023-11-22T09:10:24;7.53;;;6.55;;
80557;SDS011;69901;43.524;-5.636;2023-11-22T09:12:53;6.35;;;5.50;;
80557;SDS011;69901;43.524;-5.636;2023-11-22T09:15:20;7.10;;;5.82;;
80557;SDS011;69901;43.524;-5.636;2023-11-22T09:17:51;6.80;;;5.67;;
80557;SDS011;69901;43.524;-5.636;2023-11-22T09:20:19;10.55;;;6.22;;
80557;SDS011;69901;43.524;-5.636;2023-11-22T09:22:51;8.07;;;7.25;;
80557;SDS011;69901;43.524;-5.636;2023-11-22T09:25:23;10.10;;;7.15;;
80557;SDS011;69901;43.524;-5.636;2023-11-22T09:27:51;7.10;;;6.40;;
80557;SDS011;69901;43.524;-5.636;2023-11-22T09:30:21;8.10;;;6.23;;
80557;SDS011;69901;43.524;-5.636;2023-11-22T09:33:03;8.10;;;5.82;;
80557;SDS011;69901;43.524;-5.636;2023-11-22T09:35:40;9.05;;;6.63;;
80557;SDS011;69901;43.524;-5.636;2023-11-22T09:38:08;7.68;;;6.38;;
80557;SDS011;69901;43.524;-5.636;2023-11-22T09:40:39;10.02;;;6.90;;
80557;SDS011;69901;43.524;-5.636;2023-11-22T09:43:06;7.67;;;5.60;;
80557;SDS011;69901;43.524;-5.636;2023-11-22T09:45:32;8.05;;;6.57;;
80557;SDS011;69901;43.524;-5.636;2023-11-22T09:47:58;9.35;;;6.38;;
80557;SDS011;69901;43.524;-5.636;2023-11-22T09:50:43;8.70;;;6.97;;
80557;SDS011;69901;43.524;-5.636;2023-11-22T09:54:03;9.37;;;6.87;;
80557;SDS011;69901;43.524;-5.636;2023-11-22T09:56:10;8.88;;;6.65;;
80557;SDS011;69901;43.524;-5.636;2023-11-22T09:58:39;7.75;;;6.70;;
80557;SDS011;69901;43.524;-5.636;2023-11-22T10:01:13;8.93;;;7.00;;
80557;SDS011;69901;43.524;-5.636;2023-11-22T10:03:39;7.70;;;6.90;;
80557;SDS011;69901;43.524;-5.636;2023-11-22T10:06:05;9.93;;;6.83;;
80557;SDS011;69901;43.524;-5.636;2023-11-22T10:08:32;11.52;;;9.55;;
80557;SDS011;69901;43.524;-5.636;2023-11-22T10:10:58;10.10;;;9.00;;
80557;SDS011;69901;43.524;-5.636;2023-11-22T10:13:24;11.23;;;7.97;;
80557;SDS011;69901;43.524;-5.636;2023-11-22T10:15:50;9.20;;;8.25;;
80557;SDS011;69901;43.524;-5.636;2023-11-22T10:18:17;10.53;;;7.47;;
80557;SDS011;69901;43.524;-5.636;2023-11-22T10:20:44;9.85;;;7.38;;
80557;SDS011;69901;43.524;-5.636;2023-11-22T10:23:13;8.77;;;7.35;;
80557;SDS011;69901;43.524;-5.636;2023-11-22T10:25:45;10.73;;;7.78;;
80557;SDS011;69901;43.524;-5.636;2023-11-22T10:28:16;9.80;;;8.27;;
80557;SDS011;69901;43.524;-5.636;2023-11-22T10:30:48;8.40;;;7.60;;
80557;SDS011;69901;43.524;-5.636;2023-11-22T10:33:16;8.18;;;7.30;;
80557;SDS011;69901;43.524;-5.636;2023-11-22T10:35:46;8.68;;;7.75;;
80557;SDS011;69901;43.524;-5.636;2023-11-22T10:38:22;8.95;;;7.63;;
80557;SDS011;69901;43.524;-5.636;2023-11-22T10:40:48;8.65;;;7.60;;
80557;SDS011;69901;43.524;-5.636;2023-11-22T10:43:17;9.40;;;7.23;;
80557;SDS011;69901;43.524;-5.636;2023-11-22T10:45:43;11.30;;;7.90;;
80557;SDS011;69901;43.524;-5.636;2023-11-22T10:48:18;10.10;;;7.68;;
80557;SDS011;69901;43.524;-5.636;2023-11-22T10:50:46;10.80;;;8.13;;
80557;SDS011;69901;43.524;-5.636;2023-11-22T10:53:13;8.75;;;7.85;;
80557;SDS011;69901;43.524;-5.636;2023-11-22T10:55:41;10.10;;;8.90;;
80557;SDS011;69901;43.524;-5.636;2023-11-22T10:58:10;8.95;;;8.05;;
80557;SDS011;69901;43.524;-5.636;2023-11-22T11:00:40;10.30;;;8.77;;
80557;SDS011;69901;43.524;-5.636;2023-11-22T11:03:17;9.40;;;8.60;;
80557;SDS011;69901;43.524;-5.636;2023-11-22T11:05:47;9.82;;;8.93;;
80557;SDS011;69901;43.524;-5.636;2023-11-22T11:08:17;10.87;;;8.63;;
80557;SDS011;69901;43.524;-5.636;2023-11-22T11:10:45;10.00;;;9.10;;
80557;SDS011;69901;43.524;-5.636;2023-11-22T11:13:11;9.82;;;8.82;;
80557;SDS011;69901;43.524;-5.636;2023-11-22T11:15:41;10.48;;;9.52;;
80557;SDS011;69901;43.524;-5.636;2023-11-22T11:18:13;9.60;;;8.80;;
80557;SDS011;69901;43.524;-5.636;2023-11-22T11:20:49;10.80;;;9.80;;
80557;SDS011;69901;43.524;-5.636;2023-11-22T11:23:17;10.00;;;9.05;;
80557;SDS011;69901;43.524;-5.636;2023-11-22T11:25:44;11.15;;;9.43;;
80557;SDS011;69901;43.524;-5.636;2023-11-22T11:28:13;11.55;;;8.77;;
80557;SDS011;69901;43.524;-5.636;2023-11-22T11:30:43;11.00;;;9.13;;
80557;SDS011;69901;43.524;-5.636;2023-11-22T11:33:18;10.33;;;8.97;;
80557;SDS011;69901;43.524;-5.636;2023-11-22T11:35:52;11.05;;;9.07;;
80557;SDS011;69901;43.524;-5.636;2023-11-22T11:38:21;10.30;;;9.27;;
80557;SDS011;69901;43.524;-5.636;2023-11-22T11:40:51;8.90;;;7.97;;
80557;SDS011;69901;43.524;-5.636;2023-11-22T11:44:01;8.18;;;7.38;;
80557;SDS011;69901;43.524;-5.636;2023-11-22T11:46:12;10.53;;;7.60;;
80557;SDS011;69901;43.524;-5.636;2023-11-22T11:48:48;9.90;;;7.40;;
80557;SDS011;69901;43.524;-5.636;2023-11-22T11:51:15;9.10;;;8.18;;
80557;SDS011;69901;43.524;-5.636;2023-11-22T11:53:45;8.30;;;6.78;;
80557;SDS011;69901;43.524;-5.636;2023-11-22T11:56:11;9.45;;;7.70;;
80557;SDS011;69901;43.524;-5.636;2023-11-22T11:58:38;10.43;;;7.27;;
80557;SDS011;69901;43.524;-5.636;2023-11-22T12:01:06;8.50;;;6.90;;
80557;SDS011;69901;43.524;-5.636;2023-11-22T12:03:32;9.93;;;7.68;;
80557;SDS011;69901;43.524;-5.636;2023-11-22T12:05:58;8.18;;;7.35;;
80557;SDS011;69901;43.524;-5.636;2023-11-22T12:08:24;8.63;;;6.70;;
80557;SDS011;69901;43.524;-5.636;2023-11-22T12:10:50;7.43;;;6.15;;
80557;SDS011;69901;43.524;-5.636;2023-11-22T12:13:21;6.53;;;5.77;;
80557;SDS011;69901;43.524;-5.636;2023-11-22T12:15:49;7.78;;;6.00;;
80557;SDS011;69901;43.524;-5.636;2023-11-22T12:18:16;6.95;;;6.25;;
80557;SDS011;69901;43.524;-5.636;2023-11-22T12:20:42;6.73;;;5.27;;
80557;SDS011;69901;43.524;-5.636;2023-11-22T12:23:18;8.57;;;6.70;;
80557;SDS011;69901;43.524;-5.636;2023-11-22T12:25:44;6.93;;;6.18;;
80557;SDS011;69901;43.524;-5.636;2023-11-22T12:28:10;8.07;;;6.57;;
80557;SDS011;69901;43.524;-5.636;2023-11-22T12:30:35;7.43;;;6.73;;
80557;SDS011;69901;43.524;-5.636;2023-11-22T12:33:08;9.00;;;6.17;;
80557;SDS011;69901;43.524;-5.636;2023-11-22T12:35:35;7.38;;;6.60;;
80557;SDS011;69901;43.524;-5.636;2023-11-22T12:38:02;7.03;;;6.43;;
80557;SDS011;69901;43.524;-5.636;2023-11-22T12:40:31;7.40;;;6.70;;
80557;SDS011;69901;43.524;-5.636;2023-11-22T12:42:57;8.20;;;7.40;;
80557;SDS011;69901;43.524;-5.636;2023-11-22T12:45:24;10.70;;;7.77;;
80557;SDS011;69901;43.524;-5.636;2023-11-22T12:47:51;8.40;;;7.60;;
80557;SDS011;69901;43.524;-5.636;2023-11-22T12:52:59;11.25;;;10.27;;
80557;SDS011;69901;43.524;-5.636;2023-11-22T12:55:25;11.95;;;10.90;;
80557;SDS011;69901;43.524;-5.636;2023-11-22T12:57:57;12.03;;;10.83;;
80557;SDS011;69901;43.524;-5.636;2023-11-22T13:00:26;9.90;;;9.10;;
80557;SDS011;69901;43.524;-5.636;2023-11-22T13:02:54;12.45;;;10.02;;
80557;SDS011;69901;43.524;-5.636;2023-11-22T13:05:21;9.63;;;8.73;;
80557;SDS011;69901;43.524;-5.636;2023-11-22T13:07:47;10.98;;;9.65;;
80557;SDS011;69901;43.524;-5.636;2023-11-22T13:10:12;11.77;;;10.80;;
80557;SDS011;69901;43.524;-5.636;2023-11-22T13:12:41;11.35;;;10.35;;
80557;SDS011;69901;43.524;-5.636;2023-11-22T13:15:09;12.15;;;11.15;;
80557;SDS011;69901;43.524;-5.636;2023-11-22T13:17:39;11.75;;;10.65;;
80557;SDS011;69901;43.524;-5.636;2023-11-22T13:20:08;9.80;;;8.90;;
80557;SDS011;69901;43.524;-5.636;2023-11-22T13:22:43;8.05;;;7.13;;
80557;SDS011;69901;43.524;-5.636;2023-11-22T13:25:12;9.50;;;8.50;;
80557;SDS011;69901;43.524;-5.636;2023-11-22T13:27:47;8.88;;;8.07;;
80557;SDS011;69901;43.524;-5.636;2023-11-22T13:30:17;10.05;;;8.98;;
80557;SDS011;69901;43.524;-5.636;2023-11-22T13:32:45;9.97;;;8.70;;
80557;SDS011;69901;43.524;-5.636;2023-11-22T13:35:12;9.35;;;8.43;;
80557;SDS011;69901;43.524;-5.636;2023-11-22T13:37:45;10.13;;;8.98;;
80557;SDS011;69901;43.524;-5.636;2023-11-22T13:40:13;10.45;;;8.40;;
80557;SDS011;69901;43.524;-5.636;2023-11-22T13:42:41;9.48;;;8.57;;
80557;SDS011;69901;43.524;-5.636;2023-11-22T13:45:07;9.50;;;8.60;;
80557;SDS011;69901;43.524;-5.636;2023-11-22T13:47:33;9.13;;;8.32;;
80557;SDS011;69901;43.524;-5.636;2023-11-22T13:50:00;9.63;;;8.57;;
80557;SDS011;69901;43.524;-5.636;2023-11-22T13:52:25;9.60;;;8.60;;
80557;SDS011;69901;43.524;-5.636;2023-11-22T13:54:51;11.40;;;8.70;;
80557;SDS011;69901;43.524;-5.636;2023-11-22T13:57:21;10.60;;;8.10;;
80557;SDS011;69901;43.524;-5.636;2023-11-22T13:59:46;12.13;;;9.17;;
80557;SDS011;69901;43.524;-5.636;2023-11-22T14:02:12;12.33;;;9.07;;
80557;SDS011;69901;43.524;-5.636;2023-11-22T14:04:37;12.82;;;9.43;;
80557;SDS011;69901;43.524;-5.636;2023-11-22T14:07:03;13.37;;;8.70;;
80557;SDS011;69901;43.524;-5.636;2023-11-22T14:09:29;9.20;;;8.30;;
80557;SDS011;69901;43.524;-5.636;2023-11-22T14:11:54;10.37;;;9.27;;
80557;SDS011;69901;43.524;-5.636;2023-11-22T14:14:20;10.37;;;8.93;;
80557;SDS011;69901;43.524;-5.636;2023-11-22T14:16:45;10.47;;;9.17;;
80557;SDS011;69901;43.524;-5.636;2023-11-22T14:19:13;9.20;;;8.30;;
80557;SDS011;69901;43.524;-5.636;2023-11-22T14:21:39;11.40;;;8.70;;
80557;SDS011;69901;43.524;-5.636;2023-11-22T14:24:04;9.83;;;8.30;;
80557;SDS011;69901;43.524;-5.636;2023-11-22T14:26:30;8.48;;;7.65;;
80557;SDS011;69901;43.524;-5.636;2023-11-22T14:28:55;9.50;;;7.77;;